createdAt,value
2022-12-09T00:00:04.347Z,99358.31
2022-12-09T00:03:09.228Z,99349.16
2022-12-09T00:06:16.453Z,99359.53
2022-12-09T00:09:21.394Z,99354.22
2022-12-09T00:12:24.375Z,99344.47
2022-12-09T00:15:27.375Z,99334.94
2022-12-09T00:18:30.421Z,99331.53
2022-12-09T00:21:34.703Z,99358.84
2022-12-09T00:24:39.144Z,99311.63
2022-12-09T00:27:42.075Z,99366.94
2022-12-09T00:30:45.176Z,99286.38
2022-12-09T00:33:48.332Z,99316.97
2022-12-09T00:36:51.191Z,99314.34
2022-12-09T00:39:55.440Z,99269.06
2022-12-09T00:42:58.331Z,99358.56
2022-12-09T00:46:02.981Z,99355.88
2022-12-09T00:49:06.001Z,99330.34
2022-12-09T00:52:09.070Z,99347.69
2022-12-09T00:55:13.406Z,99323.00
2022-12-09T00:58:16.305Z,99283.00
2022-12-09T01:01:19.961Z,99320.31
2022-12-09T01:04:24.957Z,99287.66
2022-12-09T01:07:28.543Z,99342.84
2022-12-09T01:10:34.407Z,99339.28
2022-12-09T01:13:37.378Z,99342.72
2022-12-09T01:16:40.319Z,99252.69
2022-12-09T01:19:43.337Z,99329.72
2022-12-09T01:22:46.637Z,99309.50
2022-12-09T01:25:51.024Z,99332.19
2022-12-09T01:28:55.637Z,99305.06
2022-12-09T01:31:59.120Z,99290.09
2022-12-09T01:35:03.193Z,99334.81
2022-12-09T01:38:06.040Z,99332.59
2022-12-09T01:41:10.636Z,99338.94
2022-12-09T01:44:18.083Z,99248.09
2022-12-09T01:47:23.633Z,99280.19
2022-12-09T01:50:27.260Z,99320.31
2022-12-09T01:53:34.542Z,99286.59
2022-12-09T01:56:41.548Z,99291.81
2022-12-09T01:59:46.006Z,99339.69
2022-12-09T02:02:50.607Z,99334.19
2022-12-09T02:05:55.161Z,99260.56
2022-12-09T02:08:59.209Z,99331.63
2022-12-09T02:12:12.990Z,99266.91
2022-12-09T02:15:23.129Z,99327.06
2022-12-09T02:18:33.465Z,99263.88
2022-12-09T02:21:42.892Z,99303.97
2022-12-09T02:24:56.982Z,99305.34
2022-12-09T02:28:25.903Z,99285.38
2022-12-09T02:32:10.441Z,99256.88
2022-12-09T02:35:21.467Z,99311.19
2022-12-09T02:38:28.240Z,99246.78
2022-12-09T02:41:35.275Z,99242.28
2022-12-09T02:44:40.735Z,99310.66
2022-12-09T02:47:48.841Z,99301.22
2022-12-09T02:50:54.863Z,99287.66
2022-12-09T02:54:03.418Z,99272.22
2022-12-09T02:57:12.824Z,99297.16
2022-12-09T03:00:16.947Z,99176.78
2022-12-09T03:03:20.348Z,99275.28
2022-12-09T03:06:29.057Z,99269.00
2022-12-09T03:09:36.009Z,99292.59
2022-12-09T03:12:41.962Z,99281.09
2022-12-09T03:15:50.011Z,99287.22
2022-12-09T03:19:00.730Z,99291.72
2022-12-09T03:22:09.291Z,99285.47
2022-12-09T03:25:16.534Z,99193.31
2022-12-09T03:28:24.416Z,99276.38
2022-12-09T03:31:30.108Z,99274.47
2022-12-09T03:34:39.723Z,99177.94
2022-12-09T03:37:45.892Z,99240.88
2022-12-09T03:40:52.593Z,99259.09
2022-12-09T03:44:00.528Z,99175.66
2022-12-09T03:47:05.258Z,99252.06
2022-12-09T03:50:11.674Z,99170.50
2022-12-09T03:53:20.370Z,99262.53
2022-12-09T03:56:26.630Z,99266.16
2022-12-09T03:59:34.262Z,99262.56
2022-12-09T04:02:37.730Z,99268.84
2022-12-09T04:05:40.933Z,99240.41
2022-12-09T04:08:45.266Z,99228.97
2022-12-09T04:11:48.682Z,99260.94
2022-12-09T04:14:51.951Z,99227.53
2022-12-09T04:17:54.924Z,99184.75
2022-12-09T04:20:57.839Z,99258.22
2022-12-09T04:24:02.540Z,99259.94
2022-12-09T04:27:05.721Z,99235.16
2022-12-09T04:30:10.493Z,99247.16
2022-12-09T04:33:13.938Z,99240.91
2022-12-09T04:36:19.249Z,99256.56
2022-12-09T04:39:23.551Z,99190.00
2022-12-09T04:42:27.146Z,99157.38
2022-12-09T04:45:29.983Z,99231.53
2022-12-09T04:48:33.622Z,99170.16
2022-12-09T04:51:40.006Z,99220.19
2022-12-09T04:54:44.457Z,99223.69
2022-12-09T04:57:48.061Z,99240.06
2022-12-09T05:00:51.070Z,99220.19
2022-12-09T05:03:55.495Z,99227.16
2022-12-09T05:06:58.752Z,99197.50
2022-12-09T05:10:04.052Z,99226.66
2022-12-09T05:13:07.225Z,99211.06
2022-12-09T05:16:15.946Z,99230.25
2022-12-09T05:19:20.336Z,99229.84
2022-12-09T05:22:23.480Z,99207.41
2022-12-09T05:25:27.640Z,99215.47
2022-12-09T05:28:30.835Z,99209.75
2022-12-09T05:31:34.187Z,99191.34
2022-12-09T05:34:37.441Z,99163.19
2022-12-09T05:37:40.647Z,99134.34
2022-12-09T05:40:44.979Z,99181.72
2022-12-09T05:43:48.429Z,99194.59
2022-12-09T05:46:51.455Z,99185.81
2022-12-09T05:49:54.815Z,99195.25
2022-12-09T05:52:59.199Z,99197.78
2022-12-09T05:56:04.086Z,99197.91
2022-12-09T05:59:07.246Z,99179.50
2022-12-09T06:02:10.629Z,99173.84
2022-12-09T06:05:14.517Z,99196.72
2022-12-09T06:08:51.546Z,99187.63
2022-12-09T06:11:56.330Z,99192.47
2022-12-09T06:14:59.572Z,99195.41
2022-12-09T06:18:03.057Z,99194.00
2022-12-09T06:21:07.524Z,99183.81
2022-12-09T06:24:11.156Z,99131.91
2022-12-09T06:27:15.667Z,99179.00
2022-12-09T06:30:18.644Z,99177.50
2022-12-09T06:33:45.899Z,99123.44
2022-12-09T06:36:44.664Z,99149.59
2022-12-09T06:39:48.496Z,99154.06
2022-12-09T06:42:53.258Z,99125.94
2022-12-09T06:45:56.445Z,99161.72
2022-12-09T06:48:59.423Z,99150.31
2022-12-09T06:52:03.110Z,99096.06
2022-12-09T06:55:07.605Z,99153.25
2022-12-09T06:58:12.816Z,99154.75
2022-12-09T07:01:17.727Z,99177.50
2022-12-09T07:04:21.722Z,99112.63
2022-12-09T07:07:25.237Z,99165.44
2022-12-09T07:10:28.561Z,99081.50
2022-12-09T07:13:33.883Z,99180.41
2022-12-09T07:16:37.546Z,99149.94
2022-12-09T07:19:40.878Z,99180.59
2022-12-09T07:22:43.731Z,99195.59
2022-12-09T07:25:46.663Z,99188.66
2022-12-09T07:28:51.923Z,99197.69
2022-12-09T07:31:55.038Z,99174.81
2022-12-09T07:34:58.612Z,99198.38
2022-12-09T07:38:02.308Z,99160.72
2022-12-09T07:41:06.976Z,99173.81
2022-12-09T07:44:13.443Z,99204.50
2022-12-09T07:47:16.436Z,99132.34
2022-12-09T07:50:19.832Z,99186.63
2022-12-09T07:53:23.078Z,99188.09
2022-12-09T07:56:28.385Z,99159.94
2022-12-09T07:59:33.597Z,99142.22
2022-12-09T08:02:36.713Z,99161.25
2022-12-09T08:05:48.018Z,99164.56
2022-12-09T08:08:51.366Z,99182.19
2022-12-09T08:11:55.965Z,99166.19
2022-12-09T08:15:00.890Z,99143.31
2022-12-09T08:18:04.718Z,99153.88
2022-12-09T08:21:19.721Z,99172.94
2022-12-09T08:24:23.534Z,99112.28
2022-12-09T08:27:26.812Z,99156.03
2022-12-09T08:30:31.633Z,99130.06
2022-12-09T08:33:35.705Z,99106.84
2022-12-09T08:36:40.682Z,99146.75
2022-12-09T08:39:43.778Z,99081.06
2022-12-09T08:42:48.538Z,99139.84
2022-12-09T08:45:53.215Z,99167.94
2022-12-09T08:48:56.546Z,99135.41
2022-12-09T08:51:59.778Z,99112.53
2022-12-09T08:55:03.701Z,99103.41
2022-12-09T08:58:07.065Z,99150.66
2022-12-09T09:01:17.996Z,99154.00
2022-12-09T09:04:23.252Z,99102.00
2022-12-09T09:07:27.288Z,99063.94
2022-12-09T09:10:31.135Z,99133.25
2022-12-09T09:13:34.724Z,99142.94
2022-12-09T09:16:41.983Z,99142.16
2022-12-09T09:19:45.648Z,99135.06
2022-12-09T09:22:49.219Z,99103.41
2022-12-09T09:25:52.929Z,99130.13
2022-12-09T09:28:57.185Z,99121.41
2022-12-09T09:32:01.990Z,99119.97
2022-12-09T09:35:06.405Z,99120.50
2022-12-09T09:45:19.222Z,99095.41
2022-12-09T09:48:28.148Z,99079.31
2022-12-09T09:51:35.085Z,99076.97
2022-12-09T09:54:41.012Z,99101.03
2022-12-09T09:57:48.682Z,99068.91
2022-12-09T10:01:01.891Z,99099.31
2022-12-09T10:04:18.233Z,98969.44
2022-12-09T10:07:32.416Z,99096.09
2022-12-09T10:10:44.229Z,99114.56
2022-12-09T10:13:54.963Z,99099.13
2022-12-09T10:17:11.064Z,99075.63
2022-12-09T10:20:20.301Z,99098.13
2022-12-09T10:23:26.160Z,99055.22
2022-12-09T10:26:33.653Z,99079.72
2022-12-09T10:33:14.808Z,99078.81
2022-12-09T10:36:32.144Z,99089.34
2022-12-09T10:39:38.831Z,99084.53
2022-12-09T10:43:03.807Z,99084.97
2022-12-09T10:46:19.975Z,98947.81
2022-12-09T10:49:23.829Z,99043.19
2022-12-09T10:52:31.789Z,99030.22
2022-12-09T10:55:38.140Z,99043.97
2022-12-09T10:58:41.442Z,99042.56
2022-12-09T11:01:53.832Z,99053.03
2022-12-09T11:04:57.953Z,99028.56
2022-12-09T11:08:04.186Z,99020.00
2022-12-09T11:11:07.733Z,99040.81
2022-12-09T11:14:23.196Z,99011.41
2022-12-09T11:17:28.559Z,99033.97
2022-12-09T11:20:33.718Z,98951.44
2022-12-09T11:23:38.687Z,99023.84
2022-12-09T11:26:41.952Z,98896.38
2022-12-09T11:29:44.896Z,99034.91
2022-12-09T11:32:57.574Z,99006.97
2022-12-09T11:39:25.070Z,99022.22
2022-12-09T11:42:30.746Z,99007.59
2022-12-09T11:45:38.354Z,99013.09
2022-12-09T11:48:44.038Z,98974.06
2022-12-09T11:52:01.388Z,98972.00
2022-12-09T11:55:13.363Z,98937.97
2022-12-09T11:58:19.829Z,98971.78
2022-12-09T12:01:27.902Z,98968.41
2022-12-09T12:04:36.487Z,98984.72
2022-12-09T12:07:45.178Z,98984.84
2022-12-09T12:10:56.454Z,98966.81
2022-12-09T12:14:04.629Z,98980.63
2022-12-09T12:17:16.253Z,98981.09
2022-12-09T12:20:19.446Z,98980.56
2022-12-09T12:23:41.336Z,98984.53
2022-12-09T12:26:54.437Z,98982.63
2022-12-09T12:30:01.937Z,98926.34
2022-12-09T12:36:55.422Z,98963.03
2022-12-09T12:40:07.063Z,98971.78
2022-12-09T12:43:45.164Z,98979.72
2022-12-09T12:47:00.139Z,98976.09
2022-12-09T12:50:20.211Z,98969.06
2022-12-09T12:53:36.182Z,98982.72
2022-12-09T12:56:44.751Z,98913.38
2022-12-09T12:59:58.460Z,98973.25
2022-12-09T13:03:13.776Z,98972.44
2022-12-09T13:06:20.904Z,98897.69
2022-12-09T13:09:32.273Z,98968.94
2022-12-09T13:12:56.684Z,98949.78
2022-12-09T13:16:16.937Z,98962.09
2022-12-09T13:19:24.700Z,98961.88
2022-12-09T13:22:35.046Z,98967.63
2022-12-09T13:25:44.615Z,98841.84
2022-12-09T13:28:54.368Z,98963.91
2022-12-09T13:32:08.564Z,98897.47
2022-12-09T13:35:30.135Z,98946.81
2022-12-09T13:38:42.974Z,98958.81
2022-12-09T13:42:07.567Z,98905.31
2022-12-09T13:45:17.375Z,98953.66
2022-12-09T13:48:47.479Z,98951.75
2022-12-09T13:51:52.488Z,98950.06
2022-12-09T13:54:55.284Z,98943.06
2022-12-09T13:58:12.601Z,98938.50
2022-12-09T14:01:25.340Z,98938.44
2022-12-09T14:04:32.750Z,98941.47
2022-12-09T14:07:41.847Z,98942.25
2022-12-09T14:10:47.663Z,98941.63
2022-12-09T14:13:50.438Z,98953.22
2022-12-09T14:16:54.304Z,98955.84
2022-12-09T14:20:04.787Z,98949.63
2022-12-09T14:23:18.430Z,98957.66
2022-12-09T14:26:35.106Z,98957.66
2022-12-09T14:29:53.153Z,98960.66
2022-12-09T14:32:57.873Z,98962.66
2022-12-09T14:36:06.968Z,98966.66
2022-12-09T14:39:25.020Z,98970.06
2022-12-09T14:42:41.579Z,98975.59
2022-12-09T14:46:00.114Z,98981.88
2022-12-09T14:49:11.812Z,98986.16
2022-12-09T14:52:24.883Z,98986.41
2022-12-09T14:55:30.284Z,98989.19
2022-12-09T14:58:34.134Z,98984.81
2022-12-09T15:01:51.750Z,98990.44
2022-12-09T15:04:55.578Z,98996.94
2022-12-09T15:07:59.801Z,99000.44
2022-12-09T15:11:06.992Z,98997.81
2022-12-09T15:14:29.577Z,99001.47
2022-12-09T15:17:36.954Z,99006.34
2022-12-09T15:20:43.618Z,98999.63
2022-12-09T15:23:47.816Z,98999.09
2022-12-09T15:26:58.716Z,98978.56
2022-12-09T15:30:01.709Z,98991.06
2022-12-09T15:33:13.558Z,98998.00
2022-12-09T15:36:19.686Z,99012.56
2022-12-09T15:39:26.730Z,99023.00
2022-12-09T15:42:32.116Z,99027.69
2022-12-09T15:45:37.247Z,99024.09
2022-12-09T15:48:45.889Z,99013.16
2022-12-09T15:51:50.545Z,99015.06
2022-12-09T15:54:55.809Z,99022.22
2022-12-09T15:58:05.470Z,99023.03
2022-12-09T16:01:08.637Z,99026.75
2022-12-09T16:04:11.407Z,99022.22
2022-12-09T16:07:21.182Z,99027.59
2022-12-09T16:10:28.989Z,99025.78
2022-12-09T16:13:32.440Z,99024.22
2022-12-09T16:16:43.950Z,99034.06
2022-12-09T16:19:50.251Z,99028.81
2022-12-09T16:22:52.980Z,99039.78
2022-12-09T16:26:06.403Z,99037.03
2022-12-09T16:29:22.416Z,99023.69
2022-12-09T16:32:28.469Z,99020.03
2022-12-09T16:35:37.070Z,99004.78
2022-12-09T16:38:39.797Z,99029.78
2022-12-09T16:42:00.679Z,99034.28
2022-12-09T16:45:29.764Z,99043.28
2022-12-09T16:48:35.761Z,99036.22
2022-12-09T16:51:40.134Z,99046.75
2022-12-09T16:54:44.555Z,99037.97
2022-12-09T16:57:51.743Z,99040.88
2022-12-09T17:00:56.273Z,99042.69
2022-12-09T17:04:04.944Z,99048.19
2022-12-09T17:07:07.844Z,99043.78
2022-12-09T17:10:13.906Z,99044.84
2022-12-09T17:13:18.111Z,99044.94
2022-12-09T17:16:22.186Z,99040.75
2022-12-09T17:19:28.101Z,99046.91
2022-12-09T17:22:33.245Z,99055.06
2022-12-09T17:25:35.991Z,99052.50
2022-12-09T17:28:40.894Z,99056.22
2022-12-09T17:31:43.706Z,99057.91
2022-12-09T17:34:47.668Z,99064.94
2022-12-09T17:37:50.438Z,99056.81
2022-12-09T17:40:53.173Z,99056.72
2022-12-09T17:43:57.989Z,99054.13
2022-12-09T17:47:00.715Z,99068.44
2022-12-09T17:50:03.420Z,99033.44
2022-12-09T17:53:06.681Z,99067.41
2022-12-09T17:56:10.809Z,99079.75
2022-12-09T17:59:17.486Z,99076.13
2022-12-09T18:02:23.342Z,99077.03
2022-12-09T18:05:29.278Z,99084.94
2022-12-09T18:08:32.052Z,99092.03
2022-12-09T18:11:35.607Z,99083.19
2022-12-09T18:14:39.682Z,99083.19
2022-12-09T18:17:42.446Z,99088.59
2022-12-09T18:20:52.661Z,99081.72
2022-12-09T18:23:55.546Z,99087.03
2022-12-09T18:26:58.774Z,99095.94
2022-12-09T18:30:06.741Z,99086.16
2022-12-09T18:33:09.730Z,99100.47
2022-12-09T18:36:14.568Z,99095.13
2022-12-09T18:39:17.501Z,99102.28
2022-12-09T18:42:20.526Z,99103.19
2022-12-09T18:45:24.757Z,99100.56
2022-12-09T18:48:27.482Z,99105.00
2022-12-09T18:51:31.331Z,99093.38
2022-12-09T18:54:34.147Z,99101.44
2022-12-09T18:57:36.935Z,99095.41
2022-12-09T19:00:41.258Z,99106.91
2022-12-09T19:03:44.521Z,99093.97
2022-12-09T19:06:48.771Z,99109.75
2022-12-09T19:09:51.574Z,99080.91
2022-12-09T19:12:57.006Z,99100.91
2022-12-09T19:16:05.049Z,99116.88
2022-12-09T19:19:10.310Z,99113.25
2022-12-09T19:22:13.604Z,99118.63
2022-12-09T19:25:18.202Z,99111.50
2022-12-09T19:28:21.064Z,99106.38
2022-12-09T19:31:26.752Z,99124.81
2022-12-09T19:34:30.981Z,99121.16
2022-12-09T19:37:36.198Z,99134.56
2022-12-09T19:40:38.996Z,99127.41
2022-12-09T19:43:41.713Z,99128.41
2022-12-09T19:46:46.383Z,99116.22
2022-12-09T19:49:49.257Z,99122.22
2022-12-09T19:52:52.029Z,99124.06
2022-12-09T19:55:55.060Z,99133.81
2022-12-09T19:58:58.206Z,99131.19
2022-12-09T20:02:03.692Z,99129.41
2022-12-09T20:05:07.364Z,99141.06
2022-12-09T20:08:11.060Z,99137.59
2022-12-09T20:11:26.990Z,99138.50
2022-12-09T20:14:30.065Z,99141.19
2022-12-09T20:17:34.455Z,99140.31
2022-12-09T20:20:38.232Z,99135.84
2022-12-09T20:23:44.769Z,99144.75
2022-12-09T20:26:48.081Z,99147.34
2022-12-09T20:29:50.803Z,99146.41
2022-12-09T20:32:55.054Z,99147.34
2022-12-09T20:35:58.789Z,99156.19
2022-12-09T20:39:03.231Z,99158.03
2022-12-09T20:42:09.012Z,99166.06
2022-12-09T20:45:12.455Z,99162.53
2022-12-09T20:48:33.428Z,99165.38
2022-12-09T20:51:38.231Z,99168.03
2022-12-09T20:54:41.034Z,99161.81
2022-12-09T20:57:43.902Z,99160.00
2022-12-09T21:00:52.033Z,99167.13
2022-12-09T21:04:00.555Z,99166.25
2022-12-09T21:07:04.191Z,99166.34
2022-12-09T21:10:07.695Z,99169.84
2022-12-09T21:13:10.806Z,99139.19
2022-12-09T21:16:16.766Z,99167.22
2022-12-09T21:19:24.985Z,99177.13
2022-12-09T21:22:30.486Z,99174.44
2022-12-09T21:25:33.578Z,99168.25
2022-12-09T21:28:36.962Z,99171.03
2022-12-09T21:31:44.219Z,99176.28
2022-12-09T21:34:48.432Z,99174.50
2022-12-09T21:37:56.209Z,99177.22
2022-12-09T21:41:03.676Z,99176.38
2022-12-09T21:44:08.893Z,99181.06
2022-12-09T21:47:11.620Z,99182.94
2022-12-09T21:50:15.811Z,99192.72
2022-12-09T21:53:18.491Z,99176.69
2022-12-09T21:56:22.727Z,99178.44
2022-12-09T21:59:25.556Z,99176.66
2022-12-09T22:02:28.479Z,99190.91
2022-12-09T22:05:33.787Z,99184.69
2022-12-09T22:08:38.650Z,99196.25
2022-12-09T22:11:41.826Z,99189.09
2022-12-09T22:14:44.525Z,99190.00
2022-12-09T22:17:47.486Z,99186.44
2022-12-09T22:24:15.034Z,99187.53
2022-12-09T22:27:17.766Z,99187.41
2022-12-09T22:30:20.523Z,99188.31
2022-12-09T22:33:23.307Z,99178.56
2022-12-09T22:36:28.181Z,99195.47
2022-12-09T22:39:30.914Z,99194.63
2022-12-09T22:42:33.638Z,99197.31
2022-12-09T22:45:42.406Z,99197.34
2022-12-09T22:48:45.328Z,99201.69
2022-12-09T22:51:55.171Z,99203.56
2022-12-09T22:55:01.899Z,99217.03
2022-12-09T22:58:04.918Z,99212.63
2022-12-09T23:01:11.344Z,99214.38
2022-12-09T23:04:16.575Z,99217.00
2022-12-09T23:07:20.713Z,99217.97
2022-12-09T23:10:23.456Z,99215.28
2022-12-09T23:13:26.201Z,99212.63
2022-12-09T23:16:31.634Z,99206.44
2022-12-09T23:19:35.076Z,99215.28
2022-12-09T23:22:39.234Z,99185.53
2022-12-09T23:25:42.020Z,99209.94
2022-12-09T23:28:47.059Z,99213.50
2022-12-09T23:31:50.489Z,99217.97
2022-12-09T23:34:53.233Z,99219.81
2022-12-09T23:37:57.321Z,99215.41
2022-12-09T23:41:00.127Z,99211.06
2022-12-09T23:44:08.789Z,99209.34
2022-12-09T23:47:11.541Z,99212.91
2022-12-09T23:50:19.035Z,99214.66
2022-12-09T23:53:23.300Z,99211.16
2022-12-09T23:56:27.790Z,99211.13
2022-12-09T23:59:37.151Z,99214.78
